sensor_id;sensor_type;location;lat;lon;timestamp;pressure;altitude;pressure_sealevel;temperature;humidity
14800;BME280;7491;57.750;11.970;2024-02-14T00:00:36;76765.06;;;-142.11;100.00
14800;BME280;7491;57.750;11.970;2024-02-14T00:03:03;76771.19;;;-142.11;100.00
14800;BME280;7491;57.750;11.970;2024-02-14T00:05:31;76754.88;;;-142.11;100.00
14800;BME280;7491;57.750;11.970;2024-02-14T00:07:58;76742.66;;;-142.11;100.00
14800;BME280;7491;57.750;11.970;2024-02-14T00:10:26;76742.66;;;-142.11;100.00
14800;BME280;7491;57.750;11.970;2024-02-14T00:12:52;76746.72;;;-142.11;100.00
14800;BME280;7491;57.750;11.970;2024-02-14T00:15:19;76750.81;;;-142.11;100.00
14800;BME280;7491;57.750;11.970;2024-02-14T00:17:46;76756.91;;;-142.11;100.00
14800;BME280;7491;57.750;11.970;2024-02-14T00:20:13;76756.91;;;-142.11;100.00
14800;BME280;7491;57.750;11.970;2024-02-14T00:22:40;76758.97;;;-142.11;100.00
14800;BME280;7491;57.750;11.970;2024-02-14T00:25:07;76750.81;;;-142.11;100.00
14800;BME280;7491;57.750;11.970;2024-02-14T00:27:36;76738.56;;;-142.11;100.00
14800;BME280;7491;57.750;11.970;2024-02-14T00:30:03;76740.63;;;-142.11;100.00
14800;BME280;7491;57.750;11.970;2024-02-14T00:32:30;76763.03;;;-142.11;100.00
14800;BME280;7491;57.750;11.970;2024-02-14T00:34:56;76748.75;;;-142.11;100.00
14800;BME280;7491;57.750;11.970;2024-02-14T00:37:23;76756.91;;;-142.11;100.00
14800;BME280;7491;57.750;11.970;2024-02-14T00:39:49;76765.06;;;-142.11;100.00
14800;BME280;7491;57.750;11.970;2024-02-14T00:42:17;76773.22;;;-142.11;100.00
14800;BME280;7491;57.750;11.970;2024-02-14T00:44:45;76773.22;;;-142.11;100.00
14800;BME280;7491;57.750;11.970;2024-02-14T00:47:11;76765.06;;;-142.11;100.00
14800;BME280;7491;57.750;11.970;2024-02-14T00:49:38;76761.00;;;-142.11;100.00
14800;BME280;7491;57.750;11.970;2024-02-14T00:52:05;76777.31;;;-142.11;100.00
14800;BME280;7491;57.750;11.970;2024-02-14T00:54:34;76783.44;;;-142.11;100.00
14800;BME280;7491;57.750;11.970;2024-02-14T00:57:01;76797.69;;;-142.11;100.00
14800;BME280;7491;57.750;11.970;2024-02-14T00:59:27;76814.00;;;-142.11;100.00
14800;BME280;7491;57.750;11.970;2024-02-14T01:01:56;76816.06;;;-142.11;100.00
14800;BME280;7491;57.750;11.970;2024-02-14T01:04:22;76818.09;;;-142.11;100.00
14800;BME280;7491;57.750;11.970;2024-02-14T01:06:49;76822.16;;;-142.11;100.00
14800;BME280;7491;57.750;11.970;2024-02-14T01:09:17;76828.28;;;-142.11;100.00
14800;BME280;7491;57.750;11.970;2024-02-14T01:11:43;76840.53;;;-142.11;100.00
14800;BME280;7491;57.750;11.970;2024-02-14T01:14:10;76832.34;;;-142.11;100.00
14800;BME280;7491;57.750;11.970;2024-02-14T01:16:42;76834.41;;;-142.11;100.00
14800;BME280;7491;57.750;11.970;2024-02-14T01:19:10;76846.63;;;-142.11;100.00
14800;BME280;7491;57.750;11.970;2024-02-14T01:21:37;76840.53;;;-142.11;100.00
14800;BME280;7491;57.750;11.970;2024-02-14T01:24:04;76840.53;;;-142.11;100.00
14800;BME280;7491;57.750;11.970;2024-02-14T01:26:33;76834.41;;;-142.11;100.00
14800;BME280;7491;57.750;11.970;2024-02-14T01:29:00;76834.41;;;-142.11;100.00
14800;BME280;7491;57.750;11.970;2024-02-14T01:31:26;76836.44;;;-142.11;100.00
14800;BME280;7491;57.750;11.970;2024-02-14T01:33:53;76842.56;;;-142.11;100.00
14800;BME280;7491;57.750;11.970;2024-02-14T01:36:21;76848.66;;;-142.11;100.00
14800;BME280;7491;57.750;11.970;2024-02-14T01:38:48;76838.47;;;-142.11;100.00
14800;BME280;7491;57.750;11.970;2024-02-14T01:41:15;76836.44;;;-142.11;100.00
14800;BME280;7491;57.750;11.970;2024-02-14T01:43:42;76834.41;;;-142.11;100.00
14800;BME280;7491;57.750;11.970;2024-02-14T01:46:09;76824.22;;;-142.11;100.00
14800;BME280;7491;57.750;11.970;2024-02-14T01:48:37;76828.28;;;-142.11;100.00
14800;BME280;7491;57.750;11.970;2024-02-14T01:51:08;76822.16;;;-142.11;100.00
14800;BME280;7491;57.750;11.970;2024-02-14T01:53:37;76824.22;;;-142.11;100.00
14800;BME280;7491;57.750;11.970;2024-02-14T01:56:04;76820.13;;;-142.11;100.00
14800;BME280;7491;57.750;11.970;2024-02-14T01:58:33;76816.06;;;-142.11;100.00
14800;BME280;7491;57.750;11.970;2024-02-14T02:01:00;76820.13;;;-142.11;100.00
14800;BME280;7491;57.750;11.970;2024-02-14T02:03:28;76807.91;;;-142.11;100.00
14800;BME280;7491;57.750;11.970;2024-02-14T02:05:58;76797.69;;;-142.11;100.00
14800;BME280;7491;57.750;11.970;2024-02-14T02:08:25;76791.59;;;-142.11;100.00
14800;BME280;7491;57.750;11.970;2024-02-14T02:10:54;76791.59;;;-142.11;100.00
14800;BME280;7491;57.750;11.970;2024-02-14T02:13:21;76795.66;;;-142.11;100.00
14800;BME280;7491;57.750;11.970;2024-02-14T02:15:48;76795.66;;;-142.11;100.00
14800;BME280;7491;57.750;11.970;2024-02-14T02:18:15;76803.81;;;-142.11;100.00
14800;BME280;7491;57.750;11.970;2024-02-14T02:20:41;76801.78;;;-142.11;100.00
14800;BME280;7491;57.750;11.970;2024-02-14T02:23:11;76811.97;;;-142.11;100.00
14800;BME280;7491;57.750;11.970;2024-02-14T02:25:40;76809.94;;;-142.11;100.00
14800;BME280;7491;57.750;11.970;2024-02-14T02:28:06;76803.81;;;-142.11;100.00
14800;BME280;7491;57.750;11.970;2024-02-14T02:30:34;76820.13;;;-142.11;100.00
14800;BME280;7491;57.750;11.970;2024-02-14T02:33:02;76822.16;;;-142.11;100.00
14800;BME280;7491;57.750;11.970;2024-02-14T02:35:29;76822.16;;;-142.11;100.00
14800;BME280;7491;57.750;11.970;2024-02-14T02:37:55;76834.41;;;-142.11;100.00
14800;BME280;7491;57.750;11.970;2024-02-14T02:40:24;76842.56;;;-142.11;100.00
14800;BME280;7491;57.750;11.970;2024-02-14T02:42:51;76850.72;;;-142.11;100.00
14800;BME280;7491;57.750;11.970;2024-02-14T02:45:18;76834.41;;;-142.11;100.00
14800;BME280;7491;57.750;11.970;2024-02-14T02:47:44;76836.44;;;-142.11;100.00
14800;BME280;7491;57.750;11.970;2024-02-14T02:50:11;76836.44;;;-142.11;100.00
14800;BME280;7491;57.750;11.970;2024-02-14T02:52:38;76840.53;;;-142.11;100.00
14800;BME280;7491;57.750;11.970;2024-02-14T02:55:06;76848.66;;;-142.11;100.00
14800;BME280;7491;57.750;11.970;2024-02-14T02:57:34;76838.47;;;-142.11;100.00
14800;BME280;7491;57.750;11.970;2024-02-14T03:00:02;76838.47;;;-142.11;100.00
14800;BME280;7491;57.750;11.970;2024-02-14T03:02:31;76836.44;;;-142.11;100.00
14800;BME280;7491;57.750;11.970;2024-02-14T03:04:58;76844.59;;;-142.11;100.00
14800;BME280;7491;57.750;11.970;2024-02-14T03:07:25;76840.53;;;-142.11;100.00
14800;BME280;7491;57.750;11.970;2024-02-14T03:09:52;76848.66;;;-142.11;100.00
14800;BME280;7491;57.750;11.970;2024-02-14T03:12:18;76838.47;;;-142.11;100.00
14800;BME280;7491;57.750;11.970;2024-02-14T03:14:48;76836.44;;;-142.11;100.00
14800;BME280;7491;57.750;11.970;2024-02-14T03:17:15;76844.59;;;-142.11;100.00
14800;BME280;7491;57.750;11.970;2024-02-14T03:19:42;76832.34;;;-142.11;100.00
14800;BME280;7491;57.750;11.970;2024-02-14T03:22:08;76799.75;;;-142.11;100.00
14800;BME280;7491;57.750;11.970;2024-02-14T03:24:35;76795.66;;;-142.11;100.00
14800;BME280;7491;57.750;11.970;2024-02-14T03:27:03;76791.59;;;-142.11;100.00
14800;BME280;7491;57.750;11.970;2024-02-14T03:29:31;76791.59;;;-142.11;100.00
14800;BME280;7491;57.750;11.970;2024-02-14T03:31:59;76783.44;;;-142.11;100.00
14800;BME280;7491;57.750;11.970;2024-02-14T03:34:30;76785.47;;;-142.11;100.00
14800;BME280;7491;57.750;11.970;2024-02-14T03:36:59;76775.28;;;-142.11;100.00
14800;BME280;7491;57.750;11.970;2024-02-14T03:39:26;76783.44;;;-142.11;100.00
14800;BME280;7491;57.750;11.970;2024-02-14T03:41:53;76769.16;;;-142.11;100.00
14800;BME280;7491;57.750;11.970;2024-02-14T03:44:21;76763.03;;;-142.11;100.00
14800;BME280;7491;57.750;11.970;2024-02-14T03:46:48;76750.81;;;-142.11;100.00
14800;BME280;7491;57.750;11.970;2024-02-14T03:49:16;76761.00;;;-142.11;100.00
14800;BME280;7491;57.750;11.970;2024-02-14T03:51:43;76756.91;;;-142.11;100.00
14800;BME280;7491;57.750;11.970;2024-02-14T03:54:10;76754.88;;;-142.11;100.00
14800;BME280;7491;57.750;11.970;2024-02-14T03:56:37;76754.88;;;-142.11;100.00
14800;BME280;7491;57.750;11.970;2024-02-14T03:59:03;76763.03;;;-142.11;100.00
14800;BME280;7491;57.750;11.970;2024-02-14T04:01:33;76775.28;;;-142.11;100.00
14800;BME280;7491;57.750;11.970;2024-02-14T04:03:59;76773.22;;;-142.11;100.00
14800;BME280;7491;57.750;11.970;2024-02-14T04:06:27;76783.44;;;-142.11;100.00
14800;BME280;7491;57.750;11.970;2024-02-14T04:08:57;76781.38;;;-142.11;100.00
14800;BME280;7491;57.750;11.970;2024-02-14T04:11:24;76785.47;;;-142.11;100.00
14800;BME280;7491;57.750;11.970;2024-02-14T04:13:50;76775.28;;;-142.11;100.00
14800;BME280;7491;57.750;11.970;2024-02-14T04:16:19;76773.22;;;-142.11;100.00
14800;BME280;7491;57.750;11.970;2024-02-14T04:18:45;76779.34;;;-142.11;100.00
14800;BME280;7491;57.750;11.970;2024-02-14T04:21:12;76779.34;;;-142.11;100.00
14800;BME280;7491;57.750;11.970;2024-02-14T04:23:41;76777.31;;;-142.11;100.00
14800;BME280;7491;57.750;11.970;2024-02-14T04:26:07;76775.28;;;-142.11;100.00
14800;BME280;7491;57.750;11.970;2024-02-14T04:28:34;76765.06;;;-142.11;100.00
14800;BME280;7491;57.750;11.970;2024-02-14T04:31:01;76769.16;;;-142.11;100.00
14800;BME280;7491;57.750;11.970;2024-02-14T04:33:28;76769.16;;;-142.11;100.00
14800;BME280;7491;57.750;11.970;2024-02-14T04:35:55;76771.19;;;-142.11;100.00
14800;BME280;7491;57.750;11.970;2024-02-14T04:38:22;76769.16;;;-142.11;100.00
14800;BME280;7491;57.750;11.970;2024-02-14T04:40:50;76763.03;;;-142.11;100.00
14800;BME280;7491;57.750;11.970;2024-02-14T04:43:17;76756.91;;;-142.11;100.00
14800;BME280;7491;57.750;11.970;2024-02-14T04:45:44;76761.00;;;-142.11;100.00
14800;BME280;7491;57.750;11.970;2024-02-14T04:48:12;76775.28;;;-142.11;100.00
14800;BME280;7491;57.750;11.970;2024-02-14T04:50:38;76767.13;;;-142.11;100.00
14800;BME280;7491;57.750;11.970;2024-02-14T04:53:05;76771.19;;;-142.11;100.00
14800;BME280;7491;57.750;11.970;2024-02-14T04:55:32;76771.19;;;-142.11;100.00
14800;BME280;7491;57.750;11.970;2024-02-14T04:58:00;76758.97;;;-142.11;100.00
14800;BME280;7491;57.750;11.970;2024-02-14T05:00:27;76756.91;;;-142.11;100.00
14800;BME280;7491;57.750;11.970;2024-02-14T05:02:54;76744.69;;;-142.11;100.00
14800;BME280;7491;57.750;11.970;2024-02-14T05:05:20;76754.88;;;-142.11;100.00
14800;BME280;7491;57.750;11.970;2024-02-14T05:07:47;76754.88;;;-142.11;100.00
14800;BME280;7491;57.750;11.970;2024-02-14T05:10:14;76763.03;;;-142.11;100.00
14800;BME280;7491;57.750;11.970;2024-02-14T05:12:40;76767.13;;;-142.11;100.00
14800;BME280;7491;57.750;11.970;2024-02-14T05:15:10;76779.34;;;-142.11;100.00
14800;BME280;7491;57.750;11.970;2024-02-14T05:17:37;76779.34;;;-142.11;100.00
14800;BME280;7491;57.750;11.970;2024-02-14T05:20:05;76777.31;;;-142.11;100.00
14800;BME280;7491;57.750;11.970;2024-02-14T05:22:35;76773.22;;;-142.11;100.00
14800;BME280;7491;57.750;11.970;2024-02-14T05:25:03;76767.13;;;-142.11;100.00
14800;BME280;7491;57.750;11.970;2024-02-14T05:27:30;76779.34;;;-142.11;100.00
14800;BME280;7491;57.750;11.970;2024-02-14T05:29:56;76767.13;;;-142.11;100.00
14800;BME280;7491;57.750;11.970;2024-02-14T05:32:25;76765.06;;;-142.11;100.00
14800;BME280;7491;57.750;11.970;2024-02-14T05:34:51;76763.03;;;-142.11;100.00
14800;BME280;7491;57.750;11.970;2024-02-14T05:37:18;76771.19;;;-142.11;100.00
14800;BME280;7491;57.750;11.970;2024-02-14T05:39:45;76771.19;;;-142.11;100.00
14800;BME280;7491;57.750;11.970;2024-02-14T05:42:12;76767.13;;;-142.11;100.00
14800;BME280;7491;57.750;11.970;2024-02-14T05:44:41;76779.34;;;-142.11;100.00
14800;BME280;7491;57.750;11.970;2024-02-14T05:47:10;76775.28;;;-142.11;100.00
14800;BME280;7491;57.750;11.970;2024-02-14T05:49:39;76767.13;;;-142.11;100.00
14800;BME280;7491;57.750;11.970;2024-02-14T05:52:06;76775.28;;;-142.11;100.00
14800;BME280;7491;57.750;11.970;2024-02-14T05:54:33;76767.13;;;-142.11;100.00
14800;BME280;7491;57.750;11.970;2024-02-14T05:57:00;76779.34;;;-142.11;100.00
14800;BME280;7491;57.750;11.970;2024-02-14T05:59:27;76777.31;;;-142.11;100.00
14800;BME280;7491;57.750;11.970;2024-02-14T06:01:54;76787.50;;;-142.11;100.00
14800;BME280;7491;57.750;11.970;2024-02-14T06:04:21;76783.44;;;-142.11;100.00
14800;BME280;7491;57.750;11.970;2024-02-14T06:06:49;76785.47;;;-142.11;100.00
14800;BME280;7491;57.750;11.970;2024-02-14T06:09:15;76793.63;;;-142.11;100.00
14800;BME280;7491;57.750;11.970;2024-02-14T06:11:42;76781.38;;;-142.11;100.00
14800;BME280;7491;57.750;11.970;2024-02-14T06:14:09;76771.19;;;-142.11;100.00
14800;BME280;7491;57.750;11.970;2024-02-14T06:16:36;76783.44;;;-142.11;100.00
14800;BME280;7491;57.750;11.970;2024-02-14T06:19:04;76767.13;;;-142.11;100.00
14800;BME280;7491;57.750;11.970;2024-02-14T06:21:31;76761.00;;;-142.11;100.00
14800;BME280;7491;57.750;11.970;2024-02-14T06:24:00;76763.03;;;-142.11;100.00
14800;BME280;7491;57.750;11.970;2024-02-14T06:26:27;76761.00;;;-142.11;100.00
14800;BME280;7491;57.750;11.970;2024-02-14T06:28:53;76763.03;;;-142.11;100.00
14800;BME280;7491;57.750;11.970;2024-02-14T06:31:20;76763.03;;;-142.11;100.00
14800;BME280;7491;57.750;11.970;2024-02-14T06:33:47;76767.13;;;-142.11;100.00
14800;BME280;7491;57.750;11.970;2024-02-14T06:36:14;76787.50;;;-142.11;100.00
14800;BME280;7491;57.750;11.970;2024-02-14T06:38:40;76787.50;;;-142.11;100.00
14800;BME280;7491;57.750;11.970;2024-02-14T06:41:08;76781.38;;;-142.11;100.00
14800;BME280;7491;57.750;11.970;2024-02-14T06:43:35;76791.59;;;-142.11;100.00
14800;BME280;7491;57.750;11.970;2024-02-14T06:46:04;76795.66;;;-142.11;100.00
14800;BME280;7491;57.750;11.970;2024-02-14T06:48:31;76805.84;;;-142.11;100.00
14800;BME280;7491;57.750;11.970;2024-02-14T06:50:58;76816.06;;;-142.11;100.00
14800;BME280;7491;57.750;11.970;2024-02-14T06:53:24;76809.94;;;-142.11;100.00
14800;BME280;7491;57.750;11.970;2024-02-14T06:55:51;76814.00;;;-142.11;100.00
14800;BME280;7491;57.750;11.970;2024-02-14T06:58:20;76834.41;;;-142.11;100.00
14800;BME280;7491;57.750;11.970;2024-02-14T07:00:47;76818.09;;;-142.11;100.00
14800;BME280;7491;57.750;11.970;2024-02-14T07:03:15;76805.84;;;-142.11;100.00
14800;BME280;7491;57.750;11.970;2024-02-14T07:05:41;76809.94;;;-142.11;100.00
14800;BME280;7491;57.750;11.970;2024-02-14T07:08:08;76816.06;;;-142.11;100.00
14800;BME280;7491;57.750;11.970;2024-02-14T07:10:35;76805.84;;;-142.11;100.00
14800;BME280;7491;57.750;11.970;2024-02-14T07:13:02;76797.69;;;-142.11;100.00
14800;BME280;7491;57.750;11.970;2024-02-14T07:15:30;76799.75;;;-142.11;100.00
14800;BME280;7491;57.750;11.970;2024-02-14T07:17:56;76816.06;;;-142.11;100.00
14800;BME280;7491;57.750;11.970;2024-02-14T07:20:24;76824.22;;;-142.11;100.00
14800;BME280;7491;57.750;11.970;2024-02-14T07:22:52;76824.22;;;-142.11;100.00
14800;BME280;7491;57.750;11.970;2024-02-14T07:25:20;76832.34;;;-142.11;100.00
14800;BME280;7491;57.750;11.970;2024-02-14T07:27:47;76830.31;;;-142.11;100.00
14800;BME280;7491;57.750;11.970;2024-02-14T07:30:15;76846.63;;;-142.11;100.00
14800;BME280;7491;57.750;11.970;2024-02-14T07:32:43;76842.56;;;-142.11;100.00
14800;BME280;7491;57.750;11.970;2024-02-14T07:35:10;76828.28;;;-142.11;100.00
14800;BME280;7491;57.750;11.970;2024-02-14T07:37:38;76814.00;;;-142.11;100.00
14800;BME280;7491;57.750;11.970;2024-02-14T07:40:06;76818.09;;;-142.11;100.00
14800;BME280;7491;57.750;11.970;2024-02-14T07:42:33;76820.13;;;-142.11;100.00
14800;BME280;7491;57.750;11.970;2024-02-14T07:44:59;76818.09;;;-142.11;100.00
14800;BME280;7491;57.750;11.970;2024-02-14T07:47:28;76811.97;;;-142.11;100.00
14800;BME280;7491;57.750;11.970;2024-02-14T07:49:57;76814.00;;;-142.11;100.00
14800;BME280;7491;57.750;11.970;2024-02-14T07:52:23;76799.75;;;-142.11;100.00
14800;BME280;7491;57.750;11.970;2024-02-14T07:54:51;76789.53;;;-142.11;100.00
14800;BME280;7491;57.750;11.970;2024-02-14T07:57:18;76775.28;;;-142.11;100.00
14800;BME280;7491;57.750;11.970;2024-02-14T07:59:45;76775.28;;;-142.11;100.00
14800;BME280;7491;57.750;11.970;2024-02-14T08:02:11;76783.44;;;-142.11;100.00
14800;BME280;7491;57.750;11.970;2024-02-14T08:04:38;76779.34;;;-142.11;100.00
14800;BME280;7491;57.750;11.970;2024-02-14T08:07:06;76785.47;;;-142.11;100.00
14800;BME280;7491;57.750;11.970;2024-02-14T08:09:33;76771.19;;;-142.11;100.00
14800;BME280;7491;57.750;11.970;2024-02-14T08:11:59;76779.34;;;-142.11;100.00
14800;BME280;7491;57.750;11.970;2024-02-14T08:14:26;76771.19;;;-142.11;100.00
14800;BME280;7491;57.750;11.970;2024-02-14T08:16:53;76763.03;;;-142.11;100.00
14800;BME280;7491;57.750;11.970;2024-02-14T08:19:19;76771.19;;;-142.11;100.00
14800;BME280;7491;57.750;11.970;2024-02-14T08:21:46;76769.16;;;-142.11;100.00
14800;BME280;7491;57.750;11.970;2024-02-14T08:24:14;76767.13;;;-142.11;100.00
14800;BME280;7491;57.750;11.970;2024-02-14T08:26:41;76773.22;;;-142.11;100.00
14800;BME280;7491;57.750;11.970;2024-02-14T08:29:07;76758.97;;;-142.11;100.00
14800;BME280;7491;57.750;11.970;2024-02-14T08:31:36;76765.06;;;-142.11;100.00
14800;BME280;7491;57.750;11.970;2024-02-14T08:34:03;76761.00;;;-142.11;100.00
14800;BME280;7491;57.750;11.970;2024-02-14T08:36:30;76761.00;;;-142.11;100.00
14800;BME280;7491;57.750;11.970;2024-02-14T08:38:56;76738.56;;;-142.11;100.00
14800;BME280;7491;57.750;11.970;2024-02-14T08:41:24;76736.53;;;-142.11;100.00
14800;BME280;7491;57.750;11.970;2024-02-14T08:43:51;76736.53;;;-142.11;100.00
14800;BME280;7491;57.750;11.970;2024-02-14T08:46:18;76746.72;;;-142.11;100.00
14800;BME280;7491;57.750;11.970;2024-02-14T08:48:44;76736.53;;;-142.11;100.00
14800;BME280;7491;57.750;11.970;2024-02-14T08:51:12;76714.09;;;-142.11;100.00
14800;BME280;7491;57.750;11.970;2024-02-14T08:53:39;76710.03;;;-142.11;100.00
14800;BME280;7491;57.750;11.970;2024-02-14T08:56:07;76705.94;;;-142.11;100.00
14800;BME280;7491;57.750;11.970;2024-02-14T08:58:35;76699.84;;;-142.11;100.00
14800;BME280;7491;57.750;11.970;2024-02-14T09:01:02;76699.84;;;-142.11;100.00
14800;BME280;7491;57.750;11.970;2024-02-14T09:03:29;76697.78;;;-142.11;100.00
14800;BME280;7491;57.750;11.970;2024-02-14T09:05:56;76701.88;;;-142.11;100.00
14800;BME280;7491;57.750;11.970;2024-02-14T09:08:23;76699.84;;;-142.11;100.00
14800;BME280;7491;57.750;11.970;2024-02-14T09:10:50;76710.03;;;-142.11;100.00
14800;BME280;7491;57.750;11.970;2024-02-14T09:13:17;76714.09;;;-142.11;100.00
14800;BME280;7491;57.750;11.970;2024-02-14T09:15:45;76716.16;;;-142.11;100.00
14800;BME280;7491;57.750;11.970;2024-02-14T09:18:13;76703.91;;;-142.11;100.00
14800;BME280;7491;57.750;11.970;2024-02-14T09:20:43;76693.72;;;-142.11;100.00
14800;BME280;7491;57.750;11.970;2024-02-14T09:23:11;76689.63;;;-142.11;100.00
14800;BME280;7491;57.750;11.970;2024-02-14T09:25:39;76687.59;;;-142.11;100.00
14800;BME280;7491;57.750;11.970;2024-02-14T09:28:05;76699.84;;;-142.11;100.00
14800;BME280;7491;57.750;11.970;2024-02-14T09:30:32;76714.09;;;-142.11;100.00
14800;BME280;7491;57.750;11.970;2024-02-14T09:33:00;76726.34;;;-142.11;100.00
14800;BME280;7491;57.750;11.970;2024-02-14T09:35:27;76730.41;;;-142.11;100.00
14800;BME280;7491;57.750;11.970;2024-02-14T09:37:54;76728.38;;;-142.11;100.00
14800;BME280;7491;57.750;11.970;2024-02-14T09:40:20;76748.75;;;-142.11;100.00
14800;BME280;7491;57.750;11.970;2024-02-14T09:42:51;76736.53;;;-142.11;100.00
14800;BME280;7491;57.750;11.970;2024-02-14T09:45:19;76736.53;;;-142.11;100.00
14800;BME280;7491;57.750;11.970;2024-02-14T09:47:47;76728.38;;;-142.11;100.00
14800;BME280;7491;57.750;11.970;2024-02-14T09:50:16;76712.06;;;-142.11;100.00
14800;BME280;7491;57.750;11.970;2024-02-14T09:52:43;76718.19;;;-142.11;100.00
14800;BME280;7491;57.750;11.970;2024-02-14T09:55:12;76693.72;;;-142.11;100.00
14800;BME280;7491;57.750;11.970;2024-02-14T09:57:42;76689.63;;;-142.11;100.00
14800;BME280;7491;57.750;11.970;2024-02-14T10:00:10;76705.94;;;-142.11;100.00
14800;BME280;7491;57.750;11.970;2024-02-14T10:02:38;76710.03;;;-142.11;100.00
14800;BME280;7491;57.750;11.970;2024-02-14T10:05:05;76695.75;;;-142.11;100.00
14800;BME280;7491;57.750;11.970;2024-02-14T10:07:41;76697.78;;;-142.11;100.00
14800;BME280;7491;57.750;11.970;2024-02-14T10:10:08;76697.78;;;-142.11;100.00
14800;BME280;7491;57.750;11.970;2024-02-14T10:12:35;76691.69;;;-142.11;100.00
14800;BME280;7491;57.750;11.970;2024-02-14T10:15:00;76699.84;;;-142.11;100.00
14800;BME280;7491;57.750;11.970;2024-02-14T10:17:27;76685.56;;;-142.11;100.00
14800;BME280;7491;57.750;11.970;2024-02-14T10:19:57;76701.88;;;-142.11;100.00
14800;BME280;7491;57.750;11.970;2024-02-14T10:22:25;76689.63;;;-142.11;100.00
14800;BME280;7491;57.750;11.970;2024-02-14T10:24:53;76681.50;;;-142.11;100.00
14800;BME280;7491;57.750;11.970;2024-02-14T10:27:20;76673.31;;;-142.11;100.00
14800;BME280;7491;57.750;11.970;2024-02-14T10:29:47;76681.50;;;-142.11;100.00
14800;BME280;7491;57.750;11.970;2024-02-14T10:32:14;76699.84;;;-142.11;100.00
14800;BME280;7491;57.750;11.970;2024-02-14T10:34:43;76685.56;;;-142.11;100.00
14800;BME280;7491;57.750;11.970;2024-02-14T10:37:14;76677.41;;;-142.11;100.00
14800;BME280;7491;57.750;11.970;2024-02-14T10:39:42;76661.09;;;-142.11;100.00
14800;BME280;7491;57.750;11.970;2024-02-14T10:42:12;76659.06;;;-142.11;100.00
14800;BME280;7491;57.750;11.970;2024-02-14T10:44:39;76667.22;;;-142.11;100.00
14800;BME280;7491;57.750;11.970;2024-02-14T10:47:09;76679.44;;;-142.11;100.00
14800;BME280;7491;57.750;11.970;2024-02-14T10:49:37;76652.94;;;-142.11;100.00
14800;BME280;7491;57.750;11.970;2024-02-14T10:52:07;76654.97;;;-142.11;100.00
14800;BME280;7491;57.750;11.970;2024-02-14T10:54:35;76634.59;;;-142.11;100.00
14800;BME280;7491;57.750;11.970;2024-02-14T10:57:05;76650.91;;;-142.11;100.00
14800;BME280;7491;57.750;11.970;2024-02-14T10:59:40;76624.41;;;-142.11;100.00
14800;BME280;7491;57.750;11.970;2024-02-14T11:02:08;76634.59;;;-142.11;100.00
14800;BME280;7491;57.750;11.970;2024-02-14T11:04:35;76630.50;;;-142.11;100.00
14800;BME280;7491;57.750;11.970;2024-02-14T11:07:02;76620.31;;;-142.11;100.00
14800;BME280;7491;57.750;11.970;2024-02-14T11:09:33;76632.56;;;-142.11;100.00
14800;BME280;7491;57.750;11.970;2024-02-14T11:12:00;76638.66;;;-142.11;100.00
14800;BME280;7491;57.750;11.970;2024-02-14T11:14:29;76632.56;;;-142.11;100.00
14800;BME280;7491;57.750;11.970;2024-02-14T11:16:59;76628.47;;;-142.11;100.00
14800;BME280;7491;57.750;11.970;2024-02-14T11:19:30;76630.50;;;-142.11;100.00
14800;BME280;7491;57.750;11.970;2024-02-14T11:21:59;76628.47;;;-142.11;100.00
14800;BME280;7491;57.750;11.970;2024-02-14T11:24:28;76632.56;;;-142.11;100.00
14800;BME280;7491;57.750;11.970;2024-02-14T11:26:56;76630.50;;;-142.11;100.00
14800;BME280;7491;57.750;11.970;2024-02-14T11:29:29;76632.56;;;-142.11;100.00
14800;BME280;7491;57.750;11.970;2024-02-14T11:32:01;76644.78;;;-142.11;100.00
14800;BME280;7491;57.750;11.970;2024-02-14T11:34:28;76648.88;;;-142.11;100.00
14800;BME280;7491;57.750;11.970;2024-02-14T11:36:57;76650.91;;;-142.11;100.00
14800;BME280;7491;57.750;11.970;2024-02-14T11:39:25;76628.47;;;-142.11;100.00
14800;BME280;7491;57.750;11.970;2024-02-14T11:41:52;76644.78;;;-142.11;100.00
14800;BME280;7491;57.750;11.970;2024-02-14T11:44:19;76630.50;;;-142.11;100.00
14800;BME280;7491;57.750;11.970;2024-02-14T11:46:47;76636.63;;;-142.11;100.00
14800;BME280;7491;57.750;11.970;2024-02-14T11:49:15;76644.78;;;-142.11;100.00
14800;BME280;7491;57.750;11.970;2024-02-14T11:51:43;76632.56;;;-142.11;100.00
14800;BME280;7491;57.750;11.970;2024-02-14T11:54:09;76630.50;;;-142.11;100.00
14800;BME280;7491;57.750;11.970;2024-02-14T11:56:37;76652.94;;;-142.11;100.00
14800;BME280;7491;57.750;11.970;2024-02-14T11:59:05;76650.91;;;-142.11;100.00
14800;BME280;7491;57.750;11.970;2024-02-14T12:01:33;76648.88;;;-142.11;100.00
14800;BME280;7491;57.750;11.970;2024-02-14T12:04:01;76652.94;;;-142.11;100.00
14800;BME280;7491;57.750;11.970;2024-02-14T12:06:31;76648.88;;;-142.11;100.00
14800;BME280;7491;57.750;11.970;2024-02-14T12:09:00;76654.97;;;-142.11;100.00
14800;BME280;7491;57.750;11.970;2024-02-14T12:11:30;76650.91;;;-142.11;100.00
14800;BME280;7491;57.750;11.970;2024-02-14T12:14:00;76661.09;;;-142.11;100.00
14800;BME280;7491;57.750;11.970;2024-02-14T12:16:27;76654.97;;;-142.11;100.00
14800;BME280;7491;57.750;11.970;2024-02-14T12:19:03;76657.03;;;-142.11;100.00
14800;BME280;7491;57.750;11.970;2024-02-14T12:21:34;76657.03;;;-142.11;100.00
14800;BME280;7491;57.750;11.970;2024-02-14T12:24:01;76654.97;;;-142.11;100.00
14800;BME280;7491;57.750;11.970;2024-02-14T12:26:30;76640.72;;;-142.11;100.00
14800;BME280;7491;57.750;11.970;2024-02-14T12:28:57;76648.88;;;-142.11;100.00
14800;BME280;7491;57.750;11.970;2024-02-14T12:31:24;76638.66;;;-142.11;100.00